DUB weather

Dublin Airport
Dublin, County Dublin, Ireland

Public forecast

Using degrees Celsius for public forecast. Weather courtesy of forecast.io.

METAR (pilot weather report)

Retrieved 2017/08/16 18:30 UTC (3 minutes ago):

EIDW 161830Z 21013KT 9999 FEW005 SCT017 BKN021 19/15 Q1006 NOSIG

TAF (pilot weather forecast)

Forecast is more than 12 hours old.

Retrieved 2017/08/16 06:10 UTC (12 hours ago):

TAF EIDW 160500Z 1606/1706 16013KT 9999 SCT020 BKN040 BECMG 1607/1609 17016G28KT TEMPO 1607/1622 -RA BKN012 BECMG 1615/1618 20012KT PROB30 TEMPO 1615/1621 4000 RA SCT008 BKN010 BECMG 1621/1623 24012KT BECMG 1704/1706 22008KT